LGTS/SKG METAR and TAF weather

Enter ICAO airport designator
Station Type Date Time Source
LGTS METAR 2020/12/06 01:20 UTC NOAA

LGTS 060120Z 10004KT 7000 3500E BR SCT006 BKN025 11/10 Q1018 NOSIG


Station Type Date Time Source
LGTS Decoded METAR 2020/12/06 01:20 UTC NOAA

Thessaloniki Airport , Greece (LGTS) 40-31N 022-58E 4M
Dec 05, 2020 - 08:20 PM EST / 2020.12.06 0120 UTC
Wind: from the E (100 degrees) at 5 MPH (4 KT):0
Visibility: 4 mile(s):0
Sky conditions: mostly cloudy
Weather: mist
Temperature: 51 F (11 C)
Dew Point: 50 F (10 C)
Relative Humidity: 93%
Pressure (altimeter): 30.06 in. Hg (1018 hPa)
ob: LGTS 060120Z 10004KT 7000 3500E BR SCT006 BKN025 11/10 Q1018 NOSIG
cycle: 1

Station Type Date Time Source
LGTS TAF 2020/12/05 18:16 UTC NOAA

TAF LGTS 051700Z 0518/0618 VRB03KT 5000 BR FEW010 SCT025 PROB30
TEMPO 0518/0524 0500 FG BKN004
BECMG 0521/0523 FEW008 BKN020 PROB40
TEMPO 0600/0612 2000 RA

Example: see airport list